createdAt,value
2023-04-02T00:01:01.515Z,96165.41
2023-04-02T00:03:44.017Z,96165.59
2023-04-02T00:06:25.820Z,96167.84
2023-04-02T00:08:56.369Z,96173.38
2023-04-02T00:11:50.515Z,96169.72
2023-04-02T00:14:27.328Z,96174.63
2023-04-02T00:16:59.928Z,96176.41
2023-04-02T00:19:42.374Z,96177.97
2023-04-02T00:22:16.090Z,96185.69
2023-04-02T00:24:42.974Z,96189.81
2023-04-02T00:27:16.294Z,96187.00
2023-04-02T00:29:50.717Z,96186.16
2023-04-02T00:32:24.993Z,96188.31
2023-04-02T00:34:52.391Z,96196.41
2023-04-02T00:37:28.177Z,96196.41
2023-04-02T00:40:07.359Z,96192.38
2023-04-02T00:42:35.981Z,96193.69
2023-04-02T00:45:04.262Z,96196.03
2023-04-02T00:47:37.407Z,96198.13
2023-04-02T00:50:04.468Z,96195.66
2023-04-02T00:52:37.294Z,96199.97
2023-04-02T00:55:33.413Z,96203.63
2023-04-02T00:58:05.024Z,96202.25
2023-04-02T01:00:36.127Z,96202.06
2023-04-02T01:03:18.250Z,96198.19
2023-04-02T01:05:50.388Z,96206.19
2023-04-02T01:08:22.591Z,96195.56
2023-04-02T01:11:24.623Z,96202.06
2023-04-02T01:14:03.303Z,96200.94
2023-04-02T01:16:38.248Z,96203.94
2023-04-02T01:19:19.521Z,96202.41
2023-04-02T01:22:08.115Z,96210.78
2023-04-02T01:24:38.516Z,96224.03
2023-04-02T01:27:24.050Z,96223.38
2023-04-02T01:29:56.805Z,96235.84
2023-04-02T01:32:26.392Z,96232.31
2023-04-02T01:34:55.003Z,96230.28
2023-04-02T01:37:34.283Z,96230.41
2023-04-02T01:40:03.615Z,96233.88
2023-04-02T01:42:53.031Z,96233.03
2023-04-02T01:45:22.322Z,96240.41
2023-04-02T01:47:50.378Z,96237.97
2023-04-02T01:50:19.813Z,96240.78
2023-04-02T01:52:54.796Z,96241.88
2023-04-02T01:55:41.756Z,96239.06
2023-04-02T01:58:14.538Z,96246.28
2023-04-02T02:00:52.130Z,96243.81
2023-04-02T02:03:21.974Z,96247.47
2023-04-02T02:05:48.902Z,96241.88
2023-04-02T02:08:27.158Z,96241.94
2023-04-02T02:10:57.027Z,96245.84
2023-04-02T02:13:25.921Z,96242.50
2023-04-02T02:15:52.749Z,96246.53
2023-04-02T02:18:23.577Z,96244.00
2023-04-02T02:20:52.368Z,96244.41
2023-04-02T02:23:20.838Z,96245.97
2023-04-02T02:25:50.453Z,96244.19
2023-04-02T02:28:29.750Z,96248.84
2023-04-02T02:31:08.301Z,96256.72
2023-04-02T02:33:43.709Z,96245.81
2023-04-02T02:36:23.137Z,96252.03
2023-04-02T02:39:02.277Z,96257.63
2023-04-02T02:41:36.302Z,96258.63
2023-04-02T02:44:08.848Z,96257.69
2023-04-02T02:46:45.067Z,96262.94
2023-04-02T02:49:20.735Z,96264.16
2023-04-02T02:51:54.067Z,96258.81
2023-04-02T02:54:22.372Z,96263.56
2023-04-02T02:57:01.195Z,96263.16
2023-04-02T02:59:30.566Z,96272.13
2023-04-02T03:01:59.999Z,96265.84
2023-04-02T03:04:30.624Z,96270.28
2023-04-02T03:06:58.517Z,96272.78
2023-04-02T03:09:43.808Z,96273.75
2023-04-02T03:12:19.112Z,96273.91
2023-04-02T03:14:53.042Z,96270.59
2023-04-02T03:17:28.223Z,96284.53
2023-04-02T03:20:12.037Z,96286.22
2023-04-02T03:22:48.097Z,96287.16
2023-04-02T03:25:20.795Z,96287.06
2023-04-02T03:27:51.593Z,96284.88
2023-04-02T03:30:54.493Z,96294.78
2023-04-02T03:33:39.546Z,96302.09
2023-04-02T03:36:35.587Z,96296.84
2023-04-02T03:39:19.194Z,96301.16
2023-04-02T03:42:12.902Z,96305.38
2023-04-02T03:44:47.231Z,96302.94
2023-04-02T03:47:23.597Z,96307.56
2023-04-02T03:49:58.087Z,96307.41
2023-04-02T03:52:31.387Z,96317.19
2023-04-02T03:55:01.881Z,96321.31
2023-04-02T03:57:57.160Z,96319.19
2023-04-02T04:00:38.408Z,96324.28
2023-04-02T04:03:32.870Z,96324.97
2023-04-02T04:06:05.799Z,96323.34
2023-04-02T04:08:42.603Z,96330.31
2023-04-02T04:11:16.683Z,96326.81
2023-04-02T04:13:54.829Z,96329.38
2023-04-02T04:16:36.138Z,96335.75
2023-04-02T04:19:30.108Z,96335.38
2023-04-02T04:22:33.888Z,96344.22
2023-04-02T04:25:05.374Z,96339.81
2023-04-02T04:27:34.785Z,96344.72
2023-04-02T04:30:07.279Z,96347.34
2023-04-02T04:32:42.746Z,96353.47
2023-04-02T04:35:37.075Z,96351.84
2023-04-02T04:38:16.531Z,96353.63
2023-04-02T04:40:54.076Z,96364.16
2023-04-02T04:43:53.776Z,96370.25
2023-04-02T04:46:33.573Z,96371.03
2023-04-02T04:49:32.847Z,96368.31
2023-04-02T04:52:21.062Z,96370.94
2023-04-02T04:54:54.040Z,96374.50
2023-04-02T04:57:42.210Z,96373.31
2023-04-02T05:00:27.491Z,96374.06
2023-04-02T05:03:03.351Z,96370.53
2023-04-02T05:05:33.966Z,96373.84
2023-04-02T05:08:09.798Z,96371.03
2023-04-02T05:10:49.619Z,96380.59
2023-04-02T05:13:43.396Z,96377.72
2023-04-02T05:16:32.252Z,96380.19
2023-04-02T05:19:09.969Z,96384.31
2023-04-02T05:21:44.906Z,96372.72
2023-04-02T05:24:48.913Z,96376.88
2023-04-02T05:27:29.692Z,96382.03
2023-04-02T05:30:03.856Z,96382.72
2023-04-02T05:32:36.184Z,96387.91
2023-04-02T05:35:08.985Z,96387.06
2023-04-02T05:37:39.415Z,96395.84
2023-04-02T05:40:21.654Z,96392.81
2023-04-02T05:42:55.077Z,96399.50
2023-04-02T05:45:21.750Z,96393.13
2023-04-02T05:47:53.695Z,96393.06
2023-04-02T05:50:30.514Z,96400.34
2023-04-02T05:53:04.388Z,96401.13
2023-04-02T05:55:42.244Z,96406.69
2023-04-02T05:58:38.545Z,96411.59
2023-04-02T06:01:45.773Z,96403.47
2023-04-02T06:04:48.196Z,96408.53
2023-04-02T06:07:29.723Z,96406.75
2023-04-02T06:10:03.420Z,96408.16
2023-04-02T06:12:44.643Z,96415.41
2023-04-02T06:15:21.510Z,96417.78
2023-04-02T06:17:53.866Z,96418.03
2023-04-02T06:20:21.326Z,96422.19
2023-04-02T06:22:53.116Z,96415.84
2023-04-02T06:25:37.314Z,96426.56
2023-04-02T06:28:07.150Z,96430.72
2023-04-02T06:30:37.196Z,96430.47
2023-04-02T06:33:05.093Z,96438.19
2023-04-02T06:35:34.121Z,96436.91
2023-04-02T06:38:14.630Z,96435.00
2023-04-02T06:40:48.842Z,96433.53
2023-04-02T06:43:27.704Z,96433.47
2023-04-02T06:45:57.478Z,96437.44
2023-04-02T06:48:32.754Z,96440.56
2023-04-02T06:51:10.848Z,96441.88
2023-04-02T06:53:41.318Z,96452.72
2023-04-02T06:56:28.334Z,96453.28
2023-04-02T06:58:55.454Z,96449.81
2023-04-02T07:01:29.418Z,96457.59
2023-04-02T07:03:57.163Z,96452.63
2023-04-02T07:06:23.800Z,96453.75
2023-04-02T07:08:50.723Z,96467.00
2023-04-02T07:11:21.873Z,96462.84
2023-04-02T07:13:49.403Z,96470.41
2023-04-02T07:16:27.676Z,96474.66
2023-04-02T07:18:55.615Z,96479.16
2023-04-02T07:21:22.721Z,96482.88
2023-04-02T07:23:49.375Z,96486.44
2023-04-02T07:26:18.519Z,96483.81
2023-04-02T07:28:46.883Z,96486.34
2023-04-02T07:31:27.791Z,96491.16
2023-04-02T07:33:58.521Z,96492.66
2023-04-02T07:36:26.378Z,96497.97
2023-04-02T07:38:53.299Z,96491.09
2023-04-02T07:41:27.085Z,96499.38
2023-04-02T07:43:55.771Z,96496.09
2023-04-02T07:46:22.273Z,96494.94
2023-04-02T07:48:48.856Z,96498.13
2023-04-02T07:51:24.063Z,96494.16
2023-04-02T07:53:58.821Z,96497.03
2023-04-02T07:56:25.470Z,96496.50
2023-04-02T07:58:55.318Z,96487.16
2023-04-02T08:01:26.171Z,96491.94
2023-04-02T08:03:54.757Z,96495.25
2023-04-02T08:06:22.881Z,96500.81
2023-04-02T08:08:49.943Z,96504.22
2023-04-02T08:11:18.009Z,96496.75
2023-04-02T08:13:44.680Z,96508.16
2023-04-02T08:16:11.406Z,96518.63
2023-04-02T08:18:38.002Z,96500.50
2023-04-02T08:21:08.830Z,96513.72
2023-04-02T08:23:40.180Z,96507.78
2023-04-02T08:26:06.926Z,96508.13
2023-04-02T08:28:33.772Z,96516.44
2023-04-02T08:31:00.833Z,96515.19
2023-04-02T08:33:29.103Z,96510.88
2023-04-02T08:35:55.741Z,96513.25
2023-04-02T08:38:25.167Z,96513.59
2023-04-02T08:40:56.424Z,96517.19
2023-04-02T08:43:28.894Z,96526.91
2023-04-02T08:45:55.705Z,96518.41
2023-04-02T08:48:26.001Z,96526.22
2023-04-02T08:50:52.919Z,96528.50
2023-04-02T08:53:21.248Z,96528.91
2023-04-02T08:56:11.718Z,96534.94
2023-04-02T08:58:44.318Z,96536.53
2023-04-02T09:01:19.168Z,96537.19
2023-04-02T09:03:47.865Z,96536.44
2023-04-02T09:06:20.004Z,96539.94
2023-04-02T09:08:47.881Z,96541.97
2023-04-02T09:11:28.991Z,96550.53
2023-04-02T09:13:56.984Z,96545.44
2023-04-02T09:16:38.600Z,96543.97
2023-04-02T09:19:15.330Z,96548.59
2023-04-02T09:21:44.063Z,96556.34
2023-04-02T09:24:12.230Z,96557.28
2023-04-02T09:26:38.851Z,96554.09
2023-04-02T09:29:11.450Z,96557.56
2023-04-02T09:31:40.174Z,96561.38
2023-04-02T09:34:29.158Z,96562.44
2023-04-02T09:36:56.074Z,96564.91
2023-04-02T09:39:29.419Z,96570.09
2023-04-02T09:42:05.385Z,96565.56
2023-04-02T09:44:35.833Z,96573.22
2023-04-02T09:47:04.128Z,96578.06
2023-04-02T09:49:32.460Z,96575.53
2023-04-02T09:52:12.461Z,96575.66
2023-04-02T09:54:41.773Z,96569.94
2023-04-02T09:57:38.327Z,96577.69
2023-04-02T10:03:05.887Z,96573.13
2023-04-02T10:05:40.653Z,96569.53
2023-04-02T10:08:28.426Z,96570.81
2023-04-02T10:10:59.758Z,96577.59
2023-04-02T10:13:28.844Z,96575.09
2023-04-02T10:16:15.719Z,96579.84
2023-04-02T10:18:46.862Z,96582.81
2023-04-02T10:21:16.319Z,96582.81
2023-04-02T10:23:44.067Z,96582.03
2023-04-02T10:26:28.799Z,96577.94
2023-04-02T10:29:06.718Z,96585.88
2023-04-02T10:31:45.762Z,96577.97
2023-04-02T10:34:29.542Z,96585.19
2023-04-02T10:36:59.955Z,96577.41
2023-04-02T10:39:35.433Z,96579.91
2023-04-02T10:42:21.562Z,96585.81
2023-04-02T10:45:20.418Z,96584.31
2023-04-02T10:48:06.000Z,96582.59
2023-04-02T10:50:51.083Z,96584.00
2023-04-02T10:53:24.971Z,96587.72
2023-04-02T10:55:57.054Z,96590.38
2023-04-02T10:58:25.258Z,96590.84
2023-04-02T11:01:23.652Z,96596.22
2023-04-02T11:03:58.783Z,96594.25
2023-04-02T11:06:58.002Z,96589.66
2023-04-02T11:09:33.721Z,96583.75
2023-04-02T11:12:01.448Z,96590.31
2023-04-02T11:14:30.181Z,96590.75
2023-04-02T11:16:59.111Z,96589.25
2023-04-02T11:19:29.981Z,96584.78
2023-04-02T11:22:00.974Z,96590.63
2023-04-02T11:24:30.229Z,96582.69
2023-04-02T11:27:22.845Z,96584.38
2023-04-02T11:30:04.143Z,96584.44
2023-04-02T11:32:33.258Z,96577.84
2023-04-02T11:35:07.241Z,96572.69
2023-04-02T11:37:44.941Z,96573.13
2023-04-02T11:40:22.446Z,96584.34
2023-04-02T11:42:52.279Z,96583.94
2023-04-02T11:45:24.729Z,96580.44
2023-04-02T11:48:08.488Z,96589.44
2023-04-02T11:50:47.274Z,96587.97
2023-04-02T11:53:17.259Z,96583.09
2023-04-02T11:55:47.176Z,96589.69
2023-04-02T11:58:32.692Z,96591.56
2023-04-02T12:01:16.244Z,96585.75
2023-04-02T12:03:46.283Z,96593.09
2023-04-02T12:06:30.059Z,96596.78
2023-04-02T12:09:15.130Z,96586.41
2023-04-02T12:11:42.257Z,96592.88
2023-04-02T12:14:27.510Z,96594.66
2023-04-02T12:16:55.206Z,96591.16
2023-04-02T12:19:22.950Z,96593.38
2023-04-02T12:21:53.037Z,96596.06
2023-04-02T12:24:23.903Z,96596.16
2023-04-02T12:27:15.354Z,96593.59
2023-04-02T12:29:49.692Z,96593.22
2023-04-02T12:32:42.710Z,96592.06
2023-04-02T12:35:43.564Z,96594.13
2023-04-02T12:38:31.836Z,96596.59
2023-04-02T12:41:25.235Z,96600.84
2023-04-02T12:44:09.906Z,96600.63
2023-04-02T12:46:40.046Z,96594.59
2023-04-02T12:49:49.258Z,96593.66
2023-04-02T12:52:29.291Z,96596.09
2023-04-02T12:55:09.113Z,96597.72
2023-04-02T12:57:42.027Z,96594.47
2023-04-02T13:00:30.288Z,96600.50
2023-04-02T13:03:08.413Z,96602.41
2023-04-02T13:05:47.284Z,96609.50
2023-04-02T13:08:28.174Z,96617.06
2023-04-02T13:11:01.259Z,96615.91
2023-04-02T13:13:34.622Z,96614.91
2023-04-02T13:16:31.609Z,96622.56
2023-04-02T13:19:46.114Z,96616.44
2023-04-02T13:22:30.877Z,96613.06
2023-04-02T13:25:07.973Z,96619.63
2023-04-02T13:27:34.637Z,96625.25
2023-04-02T13:30:13.538Z,96614.34
2023-04-02T13:35:38.443Z,96614.16
2023-04-02T13:38:08.844Z,96617.00
2023-04-02T13:40:46.140Z,96617.53
2023-04-02T13:43:26.514Z,96629.78
2023-04-02T13:45:58.500Z,96634.91
2023-04-02T13:48:29.932Z,96631.28
2023-04-02T13:50:56.689Z,96638.56
2023-04-02T13:53:31.755Z,96637.56
2023-04-02T13:56:01.903Z,96634.06
2023-04-02T13:58:31.673Z,96640.16
2023-04-02T14:01:01.177Z,96643.06
2023-04-02T14:03:31.202Z,96637.50
2023-04-02T14:05:58.343Z,96638.28
2023-04-02T14:08:51.935Z,96640.16
2023-04-02T14:11:32.402Z,96636.88
2023-04-02T14:14:15.860Z,96637.91
2023-04-02T14:16:50.846Z,96640.13
2023-04-02T14:19:18.052Z,96636.84
2023-04-02T14:22:04.883Z,96644.44
2023-04-02T14:24:37.995Z,96638.78
2023-04-02T14:27:18.616Z,96640.78
2023-04-02T14:29:54.313Z,96638.03
2023-04-02T14:32:39.642Z,96637.34
2023-04-02T14:35:17.725Z,96641.78
2023-04-02T14:38:03.284Z,96636.34
2023-04-02T14:40:32.791Z,96629.16
2023-04-02T14:43:07.408Z,96630.78
2023-04-02T14:45:37.095Z,96631.44
2023-04-02T14:48:12.454Z,96631.38
2023-04-02T14:50:44.124Z,96630.97
2023-04-02T14:53:19.275Z,96627.41
2023-04-02T14:55:49.772Z,96634.56
2023-04-02T14:58:23.693Z,96638.16
2023-04-02T15:01:09.916Z,96639.06
2023-04-02T15:03:47.720Z,96640.38
2023-04-02T15:06:23.743Z,96642.34
2023-04-02T15:09:09.818Z,96635.50
2023-04-02T15:12:01.601Z,96638.38
2023-04-02T15:14:34.397Z,96639.69
2023-04-02T15:17:03.819Z,96642.31
2023-04-02T15:19:31.911Z,96652.59
2023-04-02T15:22:17.200Z,96659.13
2023-04-02T15:24:55.868Z,96656.63
2023-04-02T15:27:52.456Z,96663.03
2023-04-02T15:30:28.320Z,96665.00
2023-04-02T15:33:20.003Z,96665.25
2023-04-02T15:35:59.079Z,96667.06
2023-04-02T15:38:37.531Z,96672.94
2023-04-02T15:41:41.516Z,96678.47
2023-04-02T15:44:20.870Z,96673.34
2023-04-02T15:47:20.726Z,96679.09
2023-04-02T15:50:02.350Z,96688.97
2023-04-02T15:53:03.653Z,96686.88
2023-04-02T15:55:49.943Z,96687.91
2023-04-02T15:58:44.105Z,96689.78
2023-04-02T16:01:48.518Z,96698.53
2023-04-02T16:04:53.162Z,96700.59
2023-04-02T16:07:54.738Z,96706.06
2023-04-02T16:10:41.097Z,96705.97
2023-04-02T16:13:28.815Z,96705.88
2023-04-02T16:16:13.554Z,96700.84
2023-04-02T16:19:15.822Z,96706.41
2023-04-02T16:21:50.589Z,96718.06
2023-04-02T16:24:23.167Z,96725.53
2023-04-02T16:27:27.824Z,96729.56
2023-04-02T16:30:31.751Z,96736.97
2023-04-02T16:33:28.431Z,96745.09
2023-04-02T16:36:15.934Z,96751.47
2023-04-02T16:39:15.916Z,96749.97
2023-04-02T16:41:58.920Z,96751.75
2023-04-02T16:44:37.774Z,96756.53
2023-04-02T16:47:30.475Z,96753.44
2023-04-02T16:50:17.292Z,96755.38
2023-04-02T16:53:20.937Z,96759.97
2023-04-02T16:56:20.008Z,96757.34
2023-04-02T16:59:14.781Z,96759.75
2023-04-02T17:01:44.584Z,96756.66
2023-04-02T17:04:19.902Z,96761.50
2023-04-02T17:07:17.304Z,96753.66
2023-04-02T17:09:50.301Z,96759.97
2023-04-02T17:12:22.752Z,96760.66
2023-04-02T17:15:28.142Z,96771.25
2023-04-02T17:18:00.424Z,96767.16
2023-04-02T17:20:29.980Z,96760.66
2023-04-02T17:22:57.323Z,96761.50
2023-04-02T17:25:34.081Z,96771.44
2023-04-02T17:28:04.932Z,96778.75
2023-04-02T17:30:48.464Z,96775.31
2023-04-02T17:33:18.329Z,96778.13
2023-04-02T17:35:57.354Z,96785.66
2023-04-02T17:38:39.753Z,96781.25
2023-04-02T17:41:40.251Z,96788.75
2023-04-02T17:44:20.646Z,96789.84
2023-04-02T17:46:55.803Z,96785.66
2023-04-02T17:49:49.135Z,96795.66
2023-04-02T17:52:23.603Z,96802.25
2023-04-02T17:55:25.037Z,96792.50
2023-04-02T17:58:19.671Z,96800.47
2023-04-02T18:01:18.331Z,96795.38
2023-04-02T18:04:10.028Z,96792.13
2023-04-02T18:06:46.226Z,96800.88
2023-04-02T18:09:27.510Z,96800.56
2023-04-02T18:12:08.482Z,96802.41
2023-04-02T18:15:00.151Z,96800.22
2023-04-02T18:17:47.896Z,96800.47
2023-04-02T18:20:39.601Z,96804.94
2023-04-02T18:23:47.325Z,96804.19
2023-04-02T18:26:41.669Z,96802.72
2023-04-02T18:29:29.188Z,96802.19
2023-04-02T18:32:29.377Z,96810.53
2023-04-02T18:35:24.129Z,96810.91
2023-04-02T18:37:59.966Z,96810.19
2023-04-02T18:40:32.504Z,96813.06
2023-04-02T18:42:59.065Z,96823.13
2023-04-02T18:45:48.837Z,96817.00
2023-04-02T18:48:32.146Z,96818.22
2023-04-02T18:51:01.786Z,96826.66
2023-04-02T18:53:32.844Z,96828.56
2023-04-02T18:56:02.932Z,96821.47
2023-04-02T18:58:42.494Z,96822.22
2023-04-02T19:01:13.328Z,96824.25
2023-04-02T19:03:46.261Z,96823.59
2023-04-02T19:06:19.252Z,96822.19
2023-04-02T19:08:48.443Z,96820.59
2023-04-02T19:11:23.746Z,96832.00
2023-04-02T19:13:55.400Z,96833.88
2023-04-02T19:16:31.553Z,96835.63
2023-04-02T19:19:10.489Z,96838.13
2023-04-02T19:21:56.675Z,96837.34
2023-04-02T19:24:42.635Z,96835.09
2023-04-02T19:27:28.053Z,96838.00
2023-04-02T19:29:57.896Z,96843.84
2023-04-02T19:32:32.138Z,96841.97
2023-04-02T19:35:03.842Z,96842.75
2023-04-02T19:37:36.430Z,96851.72
2023-04-02T19:40:02.919Z,96849.00
2023-04-02T19:42:38.279Z,96854.25
2023-04-02T19:45:05.724Z,96859.47
2023-04-02T19:47:34.954Z,96868.06
2023-04-02T19:50:01.585Z,96870.69
2023-04-02T19:52:28.186Z,96870.69
2023-04-02T19:54:54.755Z,96872.28
2023-04-02T19:57:21.669Z,96876.72
2023-04-02T19:59:49.921Z,96873.94
2023-04-02T20:02:16.374Z,96878.78
2023-04-02T20:04:42.905Z,96878.19
2023-04-02T20:07:09.443Z,96889.03
2023-04-02T20:09:36.768Z,96884.63
2023-04-02T20:12:03.576Z,96883.81
2023-04-02T20:14:35.150Z,96886.59
2023-04-02T20:17:01.783Z,96890.00
2023-04-02T20:19:28.628Z,96884.94
2023-04-02T20:21:55.106Z,96894.69
2023-04-02T20:24:21.710Z,96889.16
2023-04-02T20:26:50.476Z,96888.94
2023-04-02T20:29:22.998Z,96888.09
2023-04-02T20:31:49.756Z,96894.19
2023-04-02T20:34:20.378Z,96897.81
2023-04-02T20:36:47.692Z,96888.38
2023-04-02T20:39:19.283Z,96885.97
2023-04-02T20:41:48.810Z,96890.91
2023-04-02T20:44:15.402Z,96885.75
2023-04-02T20:46:42.213Z,96888.28
2023-04-02T20:49:08.836Z,96884.75
2023-04-02T20:51:36.624Z,96885.59
2023-04-02T20:54:06.174Z,96885.75
2023-04-02T20:56:33.359Z,96892.78
2023-04-02T20:59:00.044Z,96886.81
2023-04-02T21:01:27.848Z,96887.66
2023-04-02T21:03:58.084Z,96891.22
2023-04-02T21:06:28.967Z,96896.59
2023-04-02T21:08:55.633Z,96888.06
2023-04-02T21:11:22.646Z,96899.88
2023-04-02T21:13:49.758Z,96892.28
2023-04-02T21:16:16.781Z,96893.25
2023-04-02T21:18:43.616Z,96892.19
2023-04-02T21:21:13.320Z,96900.16
2023-04-02T21:23:40.412Z,96894.91
2023-04-02T21:26:07.316Z,96898.38
2023-04-02T21:28:34.663Z,96903.28
2023-04-02T21:31:02.582Z,96900.53
2023-04-02T21:33:31.959Z,96903.28
2023-04-02T21:36:05.239Z,96898.88
2023-04-02T21:38:31.741Z,96903.34
2023-04-02T21:41:00.260Z,96896.53
2023-04-02T21:43:28.796Z,96899.16
2023-04-02T21:45:58.296Z,96908.09
2023-04-02T21:48:25.061Z,96897.38
2023-04-02T21:50:51.574Z,96901.06
2023-04-02T21:53:18.060Z,96907.25
2023-04-02T21:55:44.624Z,96906.59
2023-04-02T21:58:14.176Z,96903.81
2023-04-02T22:00:40.847Z,96902.84
2023-04-02T22:03:11.715Z,96897.72
2023-04-02T22:05:42.605Z,96908.25
2023-04-02T22:08:09.169Z,96894.97
2023-04-02T22:10:35.992Z,96896.03
2023-04-02T22:13:02.690Z,96896.09
2023-04-02T22:15:31.502Z,96895.19
2023-04-02T22:17:58.087Z,96897.38
2023-04-02T22:20:24.638Z,96888.38
2023-04-02T22:22:51.416Z,96891.75
2023-04-02T22:25:17.905Z,96906.53
2023-04-02T22:27:44.467Z,96901.28
2023-04-02T22:30:14.283Z,96905.75
2023-04-02T22:32:45.252Z,96896.97
2023-04-02T22:35:14.000Z,96895.22
2023-04-02T22:37:40.714Z,96897.22
2023-04-02T22:40:07.474Z,96894.78
2023-04-02T22:42:37.586Z,96901.63
2023-04-02T22:45:08.042Z,96902.34
2023-04-02T22:47:34.576Z,96901.56
2023-04-02T22:50:03.785Z,96897.94
2023-04-02T22:52:30.288Z,96907.59
2023-04-02T22:54:56.927Z,96903.25
2023-04-02T22:57:23.551Z,96901.41
2023-04-02T22:59:50.276Z,96908.59
2023-04-02T23:02:24.465Z,96908.63
2023-04-02T23:04:51.310Z,96909.53
2023-04-02T23:07:19.194Z,96911.13
2023-04-02T23:09:46.010Z,96904.31
2023-04-02T23:12:14.359Z,96908.50
2023-04-02T23:14:43.422Z,96906.22
2023-04-02T23:17:11.723Z,96910.72
2023-04-02T23:19:40.120Z,96900.38
2023-04-02T23:22:11.145Z,96903.00
2023-04-02T23:24:41.010Z,96899.53
2023-04-02T23:27:07.762Z,96899.53
2023-04-02T23:29:36.846Z,96892.50
2023-04-02T23:32:05.910Z,96902.28
2023-04-02T23:34:35.747Z,96897.13
2023-04-02T23:37:02.372Z,96893.69
2023-04-02T23:39:28.922Z,96895.47
2023-04-02T23:41:57.809Z,96888.53
2023-04-02T23:44:35.989Z,96898.97
2023-04-02T23:47:03.461Z,96895.34
2023-04-02T23:49:30.047Z,96888.31
2023-04-02T23:51:58.891Z,96886.75
2023-04-02T23:54:25.608Z,96885.03
2023-04-02T23:56:54.871Z,96884.31
2023-04-02T23:59:21.484Z,96884.13
